Time;durP1;ratioP1;P1;durP2;ratioP2;P2;SDS_P1;SDS_P2;PMS_P1;PMS_P2;Temp;Humidity;BMP_temperature;BMP_pressure;BME280_temperature;BME280_humidity;BME280_pressure;Samples;Min_cycle;Max_cycle;Signal;HPM_P1;HPM_P2
2023/02/19 00:01:53;;;;;;;;;;;;;;;10.91;60.58;101688.47;5006855;28;19913;-74
2023/02/19 00:04:42;;;;;;;;;;;;;;;10.88;60.67;101697.22;5018728;28;19913;-74
2023/02/19 00:07:34;;;;;;;;;;;;;;;10.79;61.05;101686.19;5013822;28;20390;-74
2023/02/19 00:10:26;;;;;;;;;;;;;;;10.86;61.00;101694.00;5013652;28;20314;-76
2023/02/19 00:13:18;;;;;;;;;;;;;;;10.95;60.44;101695.75;5018492;28;19913;-74
2023/02/19 00:16:11;;;;;;;;;;;;;;;10.93;60.56;101697.94;5013903;28;19914;-74
2023/02/19 00:18:59;;;;;;;;;;;;;;;10.91;60.30;101692.00;5015880;28;19917;-73
2023/02/19 00:21:51;;;;;;;;;;;;;;;10.89;60.62;101690.66;4978255;28;1312100;-75
2023/02/19 00:24:43;;;;;;;;;;;;;;;10.94;60.26;101685.16;5035124;28;20370;-75
2023/02/19 00:27:33;;;;;;;;;;;;;;;10.84;60.50;101680.66;5030510;28;20221;-73
2023/02/19 00:30:25;;;;;;;;;;;;;;;10.96;60.31;101686.50;5017409;28;19917;-74
2023/02/19 00:33:17;;;;;;;;;;;;;;;10.94;60.26;101685.16;5026499;28;19913;-73
2023/02/19 00:36:09;;;;;;;;;;;;;;;10.91;60.13;101681.13;5033880;28;19913;-74
2023/02/19 00:38:54;;;;;;;;;;;;;;;10.98;59.87;101681.56;5033122;28;19922;-74
2023/02/19 00:41:43;;;;;;;;;;;;;;;10.90;59.88;101681.41;5025349;28;19913;-73
2023/02/19 00:44:35;;;;;;;;;;;;;;;10.93;59.98;101681.63;5025342;28;20385;-74
2023/02/19 00:47:24;;;;;;;;;;;;;;;10.84;60.02;101680.66;5012194;28;19913;-73
2023/02/19 00:50:16;;;;;;;;;;;;;;;10.82;60.44;101677.41;5023792;28;19912;-73
2023/02/19 00:53:05;;;;;;;;;;;;;;;10.80;60.46;101676.91;5018986;28;19914;-73
2023/02/19 00:55:55;;;;;;;;;;;;;;;10.77;60.74;101672.03;5015065;28;19917;-73
2023/02/19 00:58:47;;;;;;;;;;;;;;;10.90;60.26;101673.25;5017869;28;19913;-74
2023/02/19 01:01:39;;;;;;;;;;;;;;;10.73;60.55;101666.38;5005115;28;19913;-74
2023/02/19 01:04:31;;;;;;;;;;;;;;;10.69;60.89;101667.28;5033839;28;19912;-74
2023/02/19 01:07:24;;;;;;;;;;;;;;;10.76;60.76;101665.00;5021138;28;19917;-74
2023/02/19 01:10:14;;;;;;;;;;;;;;;10.83;60.49;101662.72;5021904;28;19913;-73
2023/02/19 01:13:06;;;;;;;;;;;;;;;10.73;60.53;101663.66;4998156;28;19913;-74
2023/02/19 01:16:03;;;;;;;;;;;;;;;10.71;60.57;101659.63;5002165;28;19913;-74
2023/02/19 01:18:55;;;;;;;;;;;;;;;10.74;60.52;101664.47;5013424;28;19917;-73
2023/02/19 01:21:46;;;;;;;;;;;;;;;10.75;60.58;101660.66;5003108;28;19913;-74
2023/02/19 01:24:36;;;;;;;;;;;;;;;10.79;60.82;101653.53;5018843;28;19913;-74
2023/02/19 01:27:28;;;;;;;;;;;;;;;10.82;60.42;101650.22;5024605;28;19913;-74
2023/02/19 01:30:20;;;;;;;;;;;;;;;10.80;60.38;101651.63;5017705;28;19913;-74
2023/02/19 01:33:09;;;;;;;;;;;;;;;10.87;60.09;101658.31;5022538;28;19914;-74
2023/02/19 01:35:59;;;;;;;;;;;;;;;10.87;60.16;101652.06;5016383;28;20282;-75
2023/02/19 01:38:48;;;;;;;;;;;;;;;10.77;60.24;101647.56;4997067;28;19913;-73
2023/02/19 01:41:38;;;;;;;;;;;;;;;10.78;60.31;101643.75;5007682;28;19917;-74
2023/02/19 01:44:33;;;;;;;;;;;;;;;10.68;60.08;101628.38;5018138;28;19913;-72
2023/02/19 01:47:25;;;;;;;;;;;;;;;10.72;60.26;101631.31;5028424;28;19913;-72
2023/02/19 01:50:17;;;;;;;;;;;;;;;10.71;60.29;101627.00;5017765;28;19913;-72
2023/02/19 01:53:11;;;;;;;;;;;;;;;10.68;59.99;101628.38;5020183;28;19913;-72
2023/02/19 01:56:04;;;;;;;;;;;;;;;10.71;60.09;101632.44;5009449;28;19913;-72
2023/02/19 01:58:56;;;;;;;;;;;;;;;10.62;60.09;101620.56;5001767;28;19913;-72
2023/02/19 02:01:49;;;;;;;;;;;;;;;10.67;60.15;101620.50;5004171;28;19913;-71
2023/02/19 02:04:41;;;;;;;;;;;;;;;10.65;59.74;101617.28;5012718;28;19913;-72
2023/02/19 02:10:40;;;;;;;;;;;;;;;10.57;59.77;101604.31;5008153;28;19917;-72
2023/02/19 02:13:34;;;;;;;;;;;;;;;10.56;60.33;101600.81;5014663;28;19920;-72
2023/02/19 02:16:35;;;;;;;;;;;;;;;10.56;60.38;101597.28;5024076;28;19913;-72
2023/02/19 02:19:36;;;;;;;;;;;;;;;10.57;60.29;101588.00;5018024;28;19913;-72
2023/02/19 02:22:48;;;;;;;;;;;;;;;10.50;60.71;101585.66;5019850;28;19913;-71
2023/02/19 02:26:01;;;;;;;;;;;;;;;10.55;60.73;101585.59;4982212;28;19913;-72
2023/02/19 02:28:53;;;;;;;;;;;;;;;10.52;60.98;101588.06;5006246;28;19917;-72
2023/02/19 02:31:48;;;;;;;;;;;;;;;10.49;61.10;101594.94;5002364;28;19913;-72
2023/02/19 02:34:42;;;;;;;;;;;;;;;10.51;60.83;101597.38;5019746;28;19913;-72
2023/02/19 02:37:35;;;;;;;;;;;;;;;10.51;60.66;101592.72;5019942;28;19914;-72
2023/02/19 02:40:25;;;;;;;;;;;;;;;10.58;60.45;101595.06;5016842;28;19913;-72
2023/02/19 02:43:17;;;;;;;;;;;;;;;10.55;60.16;101593.75;5014921;28;19913;-72
2023/02/19 02:46:12;;;;;;;;;;;;;;;10.57;60.11;101596.16;4997208;28;19913;-71
2023/02/19 02:49:16;;;;;;;;;;;;;;;10.61;59.74;101600.75;5015406;28;19917;-71
2023/02/19 02:55:01;;;;;;;;;;;;;;;10.66;59.34;101589.00;5007906;28;19915;-72
2023/02/19 02:55:17;;;;;;;;;;;;;;;10.69;59.42;101591.91;5018725;28;20381;-71
2023/02/19 02:58:09;;;;;;;;;;;;;;;10.73;59.04;101586.69;5022821;28;20301;-71
2023/02/19 03:04:12;;;;;;;;;;;;;;;10.60;59.54;101582.81;5014551;28;19914;-72
2023/02/19 03:07:05;;;;;;;;;;;;;;;10.44;59.75;101578.69;5004740;28;19913;-72
2023/02/19 03:10:00;;;;;;;;;;;;;;;10.43;59.78;101576.25;5017501;28;19918;-71
2023/02/19 03:19:22;;;;;;;;;;;;;;;10.37;59.25;101578.22;5011568;28;19913;-72
2023/02/19 03:22:18;;;;;;;;;;;;;;;10.37;58.82;101571.97;5011012;28;19921;-72
2023/02/19 03:29:21;;;;;;;;;;;;;;;10.41;58.27;101573.84;5013649;28;19917;-72
2023/02/19 03:31:38;;;;;;;;;;;;;;;10.37;58.25;101566.53;5016175;28;19913;-72
2023/02/19 03:34:32;;;;;;;;;;;;;;;10.32;58.50;101561.16;5034954;28;19913;-72
2023/02/19 03:37:34;;;;;;;;;;;;;;;10.28;58.96;101564.47;5019279;28;20577;-71
2023/02/19 03:40:28;;;;;;;;;;;;;;;10.30;58.91;101566.91;5017165;28;19913;-71
2023/02/19 03:43:24;;;;;;;;;;;;;;;10.25;59.25;101575.94;5021914;28;20406;-71
2023/02/19 03:46:21;;;;;;;;;;;;;;;10.26;58.72;101574.81;5005255;28;19913;-72
2023/02/19 03:49:23;;;;;;;;;;;;;;;10.27;58.70;101579.16;5013484;28;19917;-72
2023/02/19 03:52:28;;;;;;;;;;;;;;;10.24;58.63;101574.31;5004187;28;19921;-71
2023/02/19 03:55:25;;;;;;;;;;;;;;;10.17;58.79;101576.59;5012134;28;20409;-72
2023/02/19 03:58:19;;;;;;;;;;;;;;;10.16;59.09;101583.13;5012213;28;19913;-72
2023/02/19 04:01:11;;;;;;;;;;;;;;;10.09;58.95;101576.41;5017963;28;19913;-72
2023/02/19 04:04:21;;;;;;;;;;;;;;;10.07;58.95;101582.13;5000695;28;19913;-72
2023/02/19 04:07:13;;;;;;;;;;;;;;;10.12;58.48;101578.53;5007262;28;19912;-72
2023/02/19 04:10:05;;;;;;;;;;;;;;;10.11;58.61;101583.16;5019135;28;19917;-72
2023/02/19 04:13:05;;;;;;;;;;;;;;;10.07;58.92;101584.03;5005160;28;19917;-72
2023/02/19 04:15:59;;;;;;;;;;;;;;;10.00;59.13;101578.97;5021411;28;19913;-72
2023/02/19 04:18:53;;;;;;;;;;;;;;;10.06;58.95;101582.41;5020114;28;19913;-72
2023/02/19 04:21:45;;;;;;;;;;;;;;;9.99;58.76;101580.03;5018417;28;20390;-72
2023/02/19 04:24:38;;;;;;;;;;;;;;;9.95;59.13;101572.78;5013304;28;19913;-71
2023/02/19 04:27:30;;;;;;;;;;;;;;;9.95;59.53;101579.00;5021584;28;19914;-72
2023/02/19 04:30:22;;;;;;;;;;;;;;;10.04;59.43;101580.00;5015351;28;19917;-72
2023/02/19 04:33:14;;;;;;;;;;;;;;;10.04;59.72;101584.59;5013839;28;19914;-72
2023/02/19 04:36:06;;;;;;;;;;;;;;;9.98;59.83;101570.28;5025387;28;19917;-71
2023/02/19 04:38:57;;;;;;;;;;;;;;;9.92;60.20;101574.13;5016500;28;19913;-72
2023/02/19 04:41:47;;;;;;;;;;;;;;;10.05;60.06;101576.19;5017785;28;19913;-72
2023/02/19 04:44:39;;;;;;;;;;;;;;;10.10;59.86;101572.59;5019444;28;19913;-71
2023/02/19 04:47:33;;;;;;;;;;;;;;;10.10;59.74;101562.53;5005792;28;19913;-72
2023/02/19 04:50:25;;;;;;;;;;;;;;;10.05;59.96;101565.31;5007603;28;19917;-72
2023/02/19 04:53:16;;;;;;;;;;;;;;;10.03;60.78;101562.06;5010287;28;19921;-72
2023/02/19 04:56:12;;;;;;;;;;;;;;;10.00;60.87;101568.09;5022383;28;19917;-72
2023/02/19 04:59:04;;;;;;;;;;;;;;;9.98;60.59;101558.59;5016957;28;19913;-72
2023/02/19 05:01:56;;;;;;;;;;;;;;;9.99;61.15;101560.22;5014422;28;19914;-72
2023/02/19 05:04:48;;;;;;;;;;;;;;;9.90;61.05;101548.38;5016606;28;19913;-71
2023/02/19 05:07:38;;;;;;;;;;;;;;;9.99;61.06;101552.06;5009790;28;19913;-71
2023/02/19 05:10:29;;;;;;;;;;;;;;;10.04;61.07;101544.66;5018417;28;19917;-72
2023/02/19 05:13:22;;;;;;;;;;;;;;;10.11;61.03;101545.09;5015147;28;19914;-72
2023/02/19 05:16:14;;;;;;;;;;;;;;;10.11;61.12;101542.38;5019816;28;19914;-72
2023/02/19 05:19:06;;;;;;;;;;;;;;;10.11;61.15;101536.94;5028132;28;19913;-71
2023/02/19 05:21:58;;;;;;;;;;;;;;;10.08;61.38;101525.84;5015816;28;19913;-72
2023/02/19 05:24:50;;;;;;;;;;;;;;;10.04;61.66;101522.94;5013684;28;19918;-72
2023/02/19 05:27:40;;;;;;;;;;;;;;;10.07;61.66;101519.63;5002601;28;20375;-72
2023/02/19 05:30:32;;;;;;;;;;;;;;;10.01;62.00;101520.78;5017802;28;19925;-72
2023/02/19 05:33:24;;;;;;;;;;;;;;;9.99;62.41;101531.13;5023902;28;19913;-71
2023/02/19 05:36:16;;;;;;;;;;;;;;;9.89;62.60;101539.41;5023181;28;19917;-71
2023/02/19 05:39:08;;;;;;;;;;;;;;;9.91;62.37;101542.63;5014366;28;19913;-72
2023/02/19 05:42:00;;;;;;;;;;;;;;;9.94;62.38;101542.06;5022095;28;19928;-72
2023/02/19 05:44:52;;;;;;;;;;;;;;;9.95;62.58;101529.31;5004097;28;21046;-72
2023/02/19 05:47:42;;;;;;;;;;;;;;;9.99;62.27;101520.28;5015434;28;20321;-73
2023/02/19 05:50:33;;;;;;;;;;;;;;;9.99;62.39;101525.72;5031815;28;20381;-72
2023/02/19 05:53:34;;;;;;;;;;;;;;;10.07;62.32;101525.03;5016491;28;19914;-72
2023/02/19 05:56:39;;;;;;;;;;;;;;;10.11;62.42;101520.63;5016444;28;19917;-72
2023/02/19 05:59:31;;;;;;;;;;;;;;;10.17;62.50;101518.69;5019346;28;19921;-72
2023/02/19 06:02:23;;;;;;;;;;;;;;;10.14;62.53;101514.63;5016663;28;19913;-74
2023/02/19 06:05:15;;;;;;;;;;;;;;;10.12;62.55;101514.09;5015764;28;19913;-73
2023/02/19 06:08:05;;;;;;;;;;;;;;;10.17;62.59;101514.06;5023827;28;19921;-71
2023/02/19 06:10:57;;;;;;;;;;;;;;;10.11;62.50;101504.34;5017457;28;20297;-71
2023/02/19 06:13:49;;;;;;;;;;;;;;;10.05;62.72;101513.69;5010543;28;19913;-71
2023/02/19 06:16:41;;;;;;;;;;;;;;;10.06;62.69;101520.69;5014455;28;19913;-71
2023/02/19 06:19:33;;;;;;;;;;;;;;;9.98;62.76;101512.41;5020959;28;20362;-71
2023/02/19 06:22:25;;;;;;;;;;;;;;;9.94;62.87;101514.91;5018404;28;19913;-71
2023/02/19 06:25:17;;;;;;;;;;;;;;;9.92;63.27;101508.94;5016205;28;19913;-71
2023/02/19 06:28:09;;;;;;;;;;;;;;;9.90;63.36;101516.59;5018177;28;20301;-71
2023/02/19 06:31:01;;;;;;;;;;;;;;;9.91;63.54;101503.78;5032615;28;20290;-71
2023/02/19 06:33:53;;;;;;;;;;;;;;;9.90;63.92;101503.00;5026946;28;19917;-71
2023/02/19 06:36:43;;;;;;;;;;;;;;;9.93;63.39;101502.41;5021213;28;19913;-71
2023/02/19 06:39:35;;;;;;;;;;;;;;;9.88;63.50;101503.28;5016939;28;19913;-71
2023/02/19 06:42:27;;;;;;;;;;;;;;;9.92;63.49;101503.50;5018417;28;19913;-71
2023/02/19 06:45:19;;;;;;;;;;;;;;;9.88;63.46;101505.19;5018132;28;19914;-71
2023/02/19 06:48:11;;;;;;;;;;;;;;;9.87;63.07;101520.69;5015771;28;19914;-71
2023/02/19 06:51:04;;;;;;;;;;;;;;;9.84;63.48;101532.13;5019956;28;19917;-71
2023/02/19 06:53:56;;;;;;;;;;;;;;;9.83;63.44;101521.56;5020804;28;19917;-71
2023/02/19 06:56:48;;;;;;;;;;;;;;;9.82;63.54;101520.75;5008263;28;19914;-71
2023/02/19 06:59:40;;;;;;;;;;;;;;;9.85;63.37;101517.44;5018281;28;19914;-71
2023/02/19 07:02:32;;;;;;;;;;;;;;;9.78;63.85;101521.63;5017041;28;19913;-71
2023/02/19 07:05:23;;;;;;;;;;;;;;;9.83;63.92;101518.84;5017742;28;20302;-71
2023/02/19 07:08:16;;;;;;;;;;;;;;;9.83;64.22;101508.78;5018307;28;19918;-71
2023/02/19 07:11:08;;;;;;;;;;;;;;;9.90;64.35;101515.78;5017796;28;19917;-71
2023/02/19 07:14:01;;;;;;;;;;;;;;;9.92;64.68;101500.78;5029141;28;19912;-71
2023/02/19 07:16:53;;;;;;;;;;;;;;;9.99;64.65;101511.31;5024480;28;19912;-72
2023/02/19 07:19:45;;;;;;;;;;;;;;;10.04;65.13;101509.34;5031152;28;19916;-71
2023/02/19 07:22:37;;;;;;;;;;;;;;;10.02;65.58;101505.28;5025222;28;20325;-71
2023/02/19 07:25:27;;;;;;;;;;;;;;;10.01;65.72;101515.34;5016086;28;19914;-71
2023/02/19 07:28:18;;;;;;;;;;;;;;;10.03;65.95;101515.06;5019715;28;19914;-71
2023/02/19 07:31:10;;;;;;;;;;;;;;;10.00;66.20;101516.47;5016580;28;19925;-71
2023/02/19 07:34:03;;;;;;;;;;;;;;;10.09;66.03;101522.03;5014978;28;19913;-71
2023/02/19 07:36:55;;;;;;;;;;;;;;;10.05;66.42;101516.41;5032372;28;19913;-71
2023/02/19 07:39:47;;;;;;;;;;;;;;;10.15;65.98;101510.81;5014387;28;20289;-71
2023/02/19 07:42:39;;;;;;;;;;;;;;;10.21;66.00;101520.53;5011308;28;19918;-71
2023/02/19 07:45:31;;;;;;;;;;;;;;;10.18;66.64;101510.25;5024367;28;19913;-71
2023/02/19 07:48:23;;;;;;;;;;;;;;;10.15;66.56;101515.44;5015602;28;19913;-70
2023/02/19 07:51:15;;;;;;;;;;;;;;;10.13;66.72;101517.63;5014779;28;19917;-71
2023/02/19 07:54:07;;;;;;;;;;;;;;;10.13;66.88;101513.00;5016387;28;19913;-71
2023/02/19 07:56:59;;;;;;;;;;;;;;;10.08;67.17;101507.66;5023099;28;20282;-71
2023/02/19 07:59:51;;;;;;;;;;;;;;;10.13;67.09;101496.72;5029617;28;20290;-71
2023/02/19 08:03:02;;;;;;;;;;;;;;;10.11;67.17;101501.63;5016225;28;19913;-71
2023/02/19 08:05:53;;;;;;;;;;;;;;;10.15;67.15;101501.84;5012392;28;19913;-73
2023/02/19 08:08:45;;;;;;;;;;;;;;;9.93;67.69;101502.41;5016110;28;19914;-74
2023/02/19 08:14:43;;;;;;;;;;;;;;;6.53;85.06;101520.88;5015801;28;19909;-70
2023/02/19 08:17:35;;;;;;;;;;;;;;;6.31;87.83;101523.78;5018852;28;19914;-70
2023/02/19 08:20:27;;;;;;;;;;;;;;;5.83;91.01;101528.47;5021642;28;20214;-69
2023/02/19 08:23:19;;;;;;;;;;;;;;;5.92;93.45;101521.53;5014374;28;19913;-73
2023/02/19 08:26:08;;;;;;;;;;;;;;;6.08;93.68;101514.28;5013493;28;20337;-70
2023/02/19 08:29:00;;;;;;;;;;;;;;;6.03;93.54;101516.16;5012475;28;19917;-70
2023/02/19 08:31:50;;;;;;;;;;;;;;;5.96;93.42;101519.91;5010569;28;19913;-70
2023/02/19 08:34:42;;;;;;;;;;;;;;;6.15;94.07;101517.53;4998316;28;19914;-69
2023/02/19 08:37:34;;;;;;;;;;;;;;;6.08;93.40;101529.69;5023838;28;19913;-69
2023/02/19 08:40:27;;;;;;;;;;;;;;;6.54;93.22;101526.00;5032520;28;20106;-68
2023/02/19 08:43:19;;;;;;;;;;;;;;;6.83;90.87;101527.13;5028250;28;19913;-69
2023/02/19 08:46:09;;;;;;;;;;;;;;;7.79;88.19;101530.72;5012498;28;20298;-70
2023/02/19 08:49:01;;;;;;;;;;;;;;;8.43;82.55;101517.19;5013043;28;20302;-70
2023/02/19 08:51:53;;;;;;;;;;;;;;;7.72;82.89;101523.69;5011413;28;19999;-69
2023/02/19 08:54:45;;;;;;;;;;;;;;;7.79;82.12;101514.47;4995811;28;19917;-69
2023/02/19 08:57:37;;;;;;;;;;;;;;;7.77;83.03;101514.78;4995710;28;19917;-70
2023/02/19 09:00:29;;;;;;;;;;;;;;;7.49;85.14;101521.63;5014459;28;19913;-70
2023/02/19 09:03:21;;;;;;;;;;;;;;;7.48;84.78;101517.28;5013576;28;20289;-70
2023/02/19 09:06:12;;;;;;;;;;;;;;;8.11;83.86;101509.47;5017969;28;19913;-70
2023/02/19 09:09:01;;;;;;;;;;;;;;;7.48;84.57;101513.78;5011579;28;19918;-70
2023/02/19 09:11:53;;;;;;;;;;;;;;;7.47;85.27;101510.25;5007808;28;19913;-69
2023/02/19 09:14:45;;;;;;;;;;;;;;;7.21;87.56;101516.81;5015889;28;19917;-69
2023/02/19 09:17:37;;;;;;;;;;;;;;;7.43;87.53;101513.78;5002518;28;19917;-70
2023/02/19 09:20:29;;;;;;;;;;;;;;;7.92;85.01;101511.19;5009754;28;19913;-69
2023/02/19 09:23:21;;;;;;;;;;;;;;;8.72;81.19;101503.69;5001285;28;20330;-70
2023/02/19 09:26:12;;;;;;;;;;;;;;;9.08;78.53;101507.72;5018627;28;19914;-70
2023/02/19 09:29:04;;;;;;;;;;;;;;;8.37;80.90;101507.47;5026043;28;19917;-78
2023/02/19 09:31:54;;;;;;;;;;;;;;;7.90;83.43;101505.22;5010731;28;19913;-73
2023/02/19 09:34:43;;;;;;;;;;;;;;;7.85;84.27;101505.25;5012796;28;19913;-70
2023/02/19 09:37:35;;;;;;;;;;;;;;;7.60;85.13;101506.97;5017211;28;19913;-70
2023/02/19 09:40:27;;;;;;;;;;;;;;;8.06;85.65;101506.78;5011751;28;19918;-70
2023/02/19 09:43:19;;;;;;;;;;;;;;;8.16;85.46;101512.97;5011919;28;19913;-70
2023/02/19 09:46:19;;;;;;;;;;;;;;;7.94;84.38;101519.84;5012618;28;19913;-70
2023/02/19 09:49:18;;;;;;;;;;;;;;;8.29;84.64;101511.53;5010152;28;19917;-70
2023/02/19 09:52:13;;;;;;;;;;;;;;;8.18;84.32;101517.31;5011087;28;19914;-70
2023/02/19 09:55:05;;;;;;;;;;;;;;;8.15;83.39;101513.22;5014520;28;19921;-70
2023/02/19 09:57:57;;;;;;;;;;;;;;;8.08;84.06;101510.81;5011603;28;19917;-70
2023/02/19 10:00:50;;;;;;;;;;;;;;;8.27;83.65;101512.91;5014073;28;20386;-70
2023/02/19 10:03:40;;;;;;;;;;;;;;;8.23;83.94;101511.84;5005019;28;19914;-70
2023/02/19 10:06:32;;;;;;;;;;;;;;;8.57;84.02;101505.41;5016660;28;19921;-70
2023/02/19 10:09:25;;;;;;;;;;;;;;;9.06;80.53;101511.78;5018871;28;19917;-70
2023/02/19 10:12:19;;;;;;;;;;;;;;;9.06;79.75;101515.31;5020762;28;20390;-70
2023/02/19 10:15:14;;;;;;;;;;;;;;;8.78;80.96;101510.69;5027884;28;19913;-70
2023/02/19 10:18:06;;;;;;;;;;;;;;;8.38;83.29;101509.09;5033113;28;20491;-69
2023/02/19 10:21:00;;;;;;;;;;;;;;;9.22;80.31;101513.28;5013740;28;20361;-70
2023/02/19 10:23:54;;;;;;;;;;;;;;;9.14;79.60;101514.72;5007908;28;19913;-70
2023/02/19 10:26:46;;;;;;;;;;;;;;;9.87;76.19;101511.72;5002429;28;19914;-70
2023/02/19 10:29:35;;;;;;;;;;;;;;;10.89;71.73;101511.91;5016811;28;19917;-70
2023/02/19 10:32:28;;;;;;;;;;;;;;;11.94;67.43;101502.84;5012519;28;19918;-69
2023/02/19 10:35:17;;;;;;;;;;;;;;;12.47;64.98;101494.03;5010224;28;19918;-70
2023/02/19 10:38:07;;;;;;;;;;;;;;;12.50;64.83;101492.59;5018770;28;19913;-70
2023/02/19 10:41:19;;;;;;;;;;;;;;;12.44;65.41;101491.94;5013943;28;19913;-70
2023/02/19 10:44:15;;;;;;;;;;;;;;;11.80;68.25;101488.44;5012637;28;20286;-74
2023/02/19 10:47:07;;;;;;;;;;;;;;;12.22;66.82;101489.97;5010580;28;19918;-70
2023/02/19 10:49:58;;;;;;;;;;;;;;;12.26;65.46;101485.50;5005095;28;19922;-74
2023/02/19 10:52:52;;;;;;;;;;;;;;;12.50;63.90;101489.88;5003570;28;19921;-70
2023/02/19 10:55:44;;;;;;;;;;;;;;;12.36;63.71;101490.75;5007251;28;19913;-70
2023/02/19 10:58:36;;;;;;;;;;;;;;;12.64;64.37;101487.91;5020340;28;19914;-70
2023/02/19 11:01:28;;;;;;;;;;;;;;;12.72;63.22;101485.25;5009627;28;19913;-69
2023/02/19 11:04:19;;;;;;;;;;;;;;;13.16;62.30;101483.59;5009979;28;19914;-70
2023/02/19 11:07:14;;;;;;;;;;;;;;;12.75;62.96;101475.63;5015836;28;19921;-70
2023/02/19 11:10:07;;;;;;;;;;;;;;;11.20;68.40;101465.09;5012237;28;19918;-70
2023/02/19 11:13:03;;;;;;;;;;;;;;;10.68;71.16;101475.25;5020968;28;19913;-70
2023/02/19 11:15:55;;;;;;;;;;;;;;;11.91;67.25;101462.59;5009821;28;19913;-70
2023/02/19 11:18:54;;;;;;;;;;;;;;;11.75;65.95;101464.00;5012028;28;20305;-69
2023/02/19 11:21:46;;;;;;;;;;;;;;;12.01;65.84;101461.56;5018864;28;20382;-70
2023/02/19 11:24:40;;;;;;;;;;;;;;;11.94;65.88;101453.78;5021903;28;19916;-69
2023/02/19 11:27:32;;;;;;;;;;;;;;;11.37;68.35;101459.88;5013092;28;19921;-69
2023/02/19 11:30:36;;;;;;;;;;;;;;;10.82;70.38;101448.88;5016604;28;19921;-70
2023/02/19 11:33:29;;;;;;;;;;;;;;;11.87;67.01;101437.06;5013051;28;19913;-69
2023/02/19 11:36:21;;;;;;;;;;;;;;;12.11;65.88;101436.78;5014391;28;19913;-69
2023/02/19 11:39:23;;;;;;;;;;;;;;;11.94;66.14;101434.69;5012951;28;20305;-70
2023/02/19 11:42:27;;;;;;;;;;;;;;;11.61;67.45;101427.78;5001532;28;19914;-69
2023/02/19 11:45:26;;;;;;;;;;;;;;;11.43;67.99;101426.75;5017357;28;19921;-70
2023/02/19 11:48:30;;;;;;;;;;;;;;;11.50;68.06;101415.47;5010925;28;19917;-69
2023/02/19 11:51:34;;;;;;;;;;;;;;;11.24;68.53;101417.91;5011230;28;19917;-69
2023/02/19 11:54:41;;;;;;;;;;;;;;;11.72;67.28;101409.31;5013225;28;19913;-70
2023/02/19 11:57:37;;;;;;;;;;;;;;;13.28;62.13;101415.53;5012451;28;19913;-69
2023/02/19 12:00:32;;;;;;;;;;;;;;;13.66;60.70;101394.75;5015493;28;19917;-69
2023/02/19 12:03:24;;;;;;;;;;;;;;;14.26;57.87;101395.91;5014592;28;19913;-69
2023/02/19 12:06:24;;;;;;;;;;;;;;;14.16;57.71;101391.56;5012792;28;19917;-69
2023/02/19 12:09:33;;;;;;;;;;;;;;;14.78;56.83;101400.19;5016759;28;19913;-70
2023/02/19 12:12:35;;;;;;;;;;;;;;;15.44;53.99;101402.50;5014509;28;19913;-69
2023/02/19 12:15:43;;;;;;;;;;;;;;;15.29;54.06;101401.09;5006214;28;19918;-69
2023/02/19 12:18:51;;;;;;;;;;;;;;;14.50;56.44;101382.53;5016104;28;19913;-69
2023/02/19 12:21:53;;;;;;;;;;;;;;;14.62;56.72;101373.66;5007583;28;19913;-69
2023/02/19 12:24:45;;;;;;;;;;;;;;;14.60;56.14;101386.88;5006977;28;19921;-70
2023/02/19 12:27:51;;;;;;;;;;;;;;;13.99;58.67;101366.94;5011751;28;20385;-68
2023/02/19 12:30:53;;;;;;;;;;;;;;;13.38;60.20;101366.09;5009985;28;19917;-70
2023/02/19 12:33:58;;;;;;;;;;;;;;;12.29;64.79;101366.84;5007057;28;19913;-70
2023/02/19 12:36:55;;;;;;;;;;;;;;;14.66;57.18;101366.41;5011172;28;20378;-69
2023/02/19 12:39:59;;;;;;;;;;;;;;;15.53;54.67;101367.66;5015288;28;19913;-70
2023/02/19 12:43:05;;;;;;;;;;;;;;;14.06;58.28;101351.69;5004440;28;19914;-70
2023/02/19 12:46:08;;;;;;;;;;;;;;;12.95;62.21;101351.47;5012509;28;19917;-69
2023/02/19 12:49:02;;;;;;;;;;;;;;;14.34;57.79;101354.84;5017688;28;19937;-69
2023/02/19 12:51:56;;;;;;;;;;;;;;;14.32;57.33;101357.13;5015308;28;19921;-70
2023/02/19 12:54:48;;;;;;;;;;;;;;;17.31;49.21;101348.88;5011793;28;19914;-69
2023/02/19 12:57:40;;;;;;;;;;;;;;;17.44;48.20;101347.72;5017534;28;19913;-69
2023/02/19 13:00:46;;;;;;;;;;;;;;;18.89;44.32;101336.47;5015028;28;19913;-69
2023/02/19 13:03:40;;;;;;;;;;;;;;;20.83;39.43;101334.25;5013384;28;19932;-69
2023/02/19 13:06:32;;;;;;;;;;;;;;;18.39;45.63;101329.63;5015688;28;19913;-69
2023/02/19 13:09:27;;;;;;;;;;;;;;;19.87;41.26;101334.38;5009947;28;20286;-70
2023/02/19 13:12:19;;;;;;;;;;;;;;;21.21;39.03;101331.34;5015651;28;19921;-70
2023/02/19 13:15:11;;;;;;;;;;;;;;;23.95;33.36;101338.41;5011365;28;20378;-70
2023/02/19 13:18:04;;;;;;;;;;;;;;;22.05;36.42;101330.91;5012768;28;19913;-70
2023/02/19 13:20:54;;;;;;;;;;;;;;;20.66;39.44;101326.47;5016130;28;19913;-69
2023/02/19 13:24:02;;;;;;;;;;;;;;;21.84;36.58;101324.31;5013259;28;19913;-69
2023/02/19 13:27:03;;;;;;;;;;;;;;;17.60;46.64;101319.53;5016770;28;19913;-70
2023/02/19 13:30:02;;;;;;;;;;;;;;;21.22;38.01;101312.78;5012276;28;20003;-70
2023/02/19 13:32:55;;;;;;;;;;;;;;;21.15;37.76;101319.00;5008359;28;19914;-71
2023/02/19 13:36:04;;;;;;;;;;;;;;;21.40;37.80;101315.81;5015451;28;19917;-71
2023/02/19 13:38:55;;;;;;;;;;;;;;;21.79;36.70;101313.56;5012437;28;20386;-70
2023/02/19 13:41:54;;;;;;;;;;;;;;;21.20;36.87;101309.59;5011481;28;19913;-70
2023/02/19 13:44:46;;;;;;;;;;;;;;;18.80;43.25;101304.38;5004056;28;19917;-69
2023/02/19 13:47:46;;;;;;;;;;;;;;;17.48;47.46;101301.06;5013754;28;19913;-70
2023/02/19 13:50:38;;;;;;;;;;;;;;;19.31;42.36;101303.56;5003806;28;19926;-70
2023/02/19 13:53:50;;;;;;;;;;;;;;;22.58;35.90;101302.97;5008353;28;19917;-70
2023/02/19 13:56:42;;;;;;;;;;;;;;;20.46;39.47;101300.88;5010176;28;19914;-70
2023/02/19 13:59:41;;;;;;;;;;;;;;;19.20;41.69;101301.38;5012395;28;19913;-70
2023/02/19 14:02:31;;;;;;;;;;;;;;;18.55;43.48;101296.63;5011267;28;19913;-70
2023/02/19 14:05:41;;;;;;;;;;;;;;;20.68;38.81;101299.25;5006750;28;20537;-70
2023/02/19 14:08:51;;;;;;;;;;;;;;;22.32;36.03;101292.81;5022330;28;19913;-70
2023/02/19 14:11:46;;;;;;;;;;;;;;;19.60;40.46;101289.28;5021675;28;19916;-70
2023/02/19 14:14:42;;;;;;;;;;;;;;;21.17;38.05;101294.53;5015148;28;19914;-70
2023/02/19 14:17:44;;;;;;;;;;;;;;;21.19;38.44;101291.38;5018124;28;19913;-69
2023/02/19 14:20:44;;;;;;;;;;;;;;;22.42;35.68;101299.66;5015053;28;20614;-70
2023/02/19 14:23:36;;;;;;;;;;;;;;;19.29;41.81;101305.91;5004640;28;19913;-71
2023/02/19 14:26:29;;;;;;;;;;;;;;;20.18;40.59;101290.03;5011895;28;19913;-70
2023/02/19 14:29:16;;;;;;;;;;;;;;;22.05;36.08;101289.38;5020280;28;19913;-70
2023/02/19 14:32:12;;;;;;;;;;;;;;;20.38;38.61;101288.88;5017705;28;20398;-71
2023/02/19 14:35:05;;;;;;;;;;;;;;;21.10;37.45;101291.63;5014320;28;19914;-70
2023/02/19 14:37:58;;;;;;;;;;;;;;;20.84;37.82;101297.94;5014850;28;19918;-70
2023/02/19 14:40:52;;;;;;;;;;;;;;;20.32;39.05;101290.34;5013904;28;19921;-69
2023/02/19 14:43:45;;;;;;;;;;;;;;;20.64;38.24;101295.63;5012547;28;19913;-71
2023/02/19 14:46:35;;;;;;;;;;;;;;;19.87;40.07;101290.22;5014496;28;19913;-70
2023/02/19 14:49:41;;;;;;;;;;;;;;;19.54;41.36;101288.78;5002691;28;20658;-70
2023/02/19 14:52:35;;;;;;;;;;;;;;;17.98;44.80;101277.78;5020401;28;19916;-70
2023/02/19 14:55:37;;;;;;;;;;;;;;;18.59;44.42;101281.78;5018650;28;19933;-70
2023/02/19 14:58:31;;;;;;;;;;;;;;;18.59;43.77;101279.03;5019488;28;19913;-70
2023/02/19 15:01:32;;;;;;;;;;;;;;;18.43;43.83;101283.72;5017120;28;19913;-70
2023/02/19 15:04:27;;;;;;;;;;;;;;;17.20;47.79;101269.97;5014311;28;19917;-70
2023/02/19 15:07:29;;;;;;;;;;;;;;;17.33;46.97;101277.03;5014233;28;19921;-70
2023/02/19 15:10:18;;;;;;;;;;;;;;;16.97;48.18;101281.44;5007438;28;19918;-70
2023/02/19 15:13:11;;;;;;;;;;;;;;;17.41;47.05;101276.94;5004980;28;19914;-70
2023/02/19 15:16:03;;;;;;;;;;;;;;;17.39;47.19;101284.72;5019591;28;19921;-71
2023/02/19 15:18:56;;;;;;;;;;;;;;;16.94;48.83;101289.56;5019874;28;20306;-69